| Date | Time | Temp. (oF) | Dew Point (oF) | Rel. Hum. (%) | Press. (in.) | Wind Dir. | Wind Speed (mph) | Hourly Rainfall (in.) |
|
|---|---|---|---|---|---|---|---|---|---|
| 1 | 11/17 | 00:00 | 42 | 36 | 82 | 30.08 | NW | 4 | 0.00 |
| 2 | 11/16 | 23:00 | 43 | 42 | 98 | 30.07 | NW | 7 | 0.00 |
| 3 | 11/16 | 22:00 | 44 | 44 | 100 | 30.06 | S | 0 | 0.06 |
| 4 | 11/16 | 21:00 | 45 | 45 | 100 | 30.03 | W | 2 | 0.07 |
| 5 | 11/16 | 20:00 | 45 | 45 | 100 | 30.03 | NW | 3 | 0.02 |
| 6 | 11/16 | 19:00 | 46 | 45 | 100 | 30.01 | NW | 4 | 0.15 |
| 7 | 11/16 | 18:00 | 47 | 46 | 99 | 29.98 | NW | 5 | 0.05 |
| 8 | 11/16 | 17:00 | 48 | 48 | 100 | 29.96 | WNW | 4 | 0.10 |
| 9 | 11/16 | 16:00 | 50 | 49 | 99 | 29.94 | NW | 8 | 0.06 |
| 10 | 11/16 | 15:00 | 58 | 58 | 100 | 29.88 | NW | 9 | 0.22 |
| 11 | 11/16 | 14:00 | 64 | 63 | 100 | 29.84 | SW | 12 | 0.20 |
| 12 | 11/16 | 13:00 | 69 | 63 | 83 | 29.83 | SSE | 9 | 0.00 |
| 13 | 11/16 | 12:00 | 69 | 63 | 84 | 29.86 | SW | 13 | 0.00 |
| 14 | 11/16 | 11:00 | 68 | 64 | 89 | 29.91 | S | 13 | 0.00 |
| 15 | 11/16 | 10:00 | 67 | 64 | 91 | 29.93 | SSW | 15 | 0.00 |
| 16 | 11/16 | 09:00 | 66 | 63 | 92 | 29.95 | S | 11 | 0.00 |
| 17 | 11/16 | 08:00 | 65 | 63 | 94 | 29.98 | S | 18 | 0.00 |
| 18 | 11/16 | 07:00 | 65 | 63 | 95 | 29.97 | S | 16 | 0.00 |
| 19 | 11/16 | 06:00 | 65 | 63 | 95 | 29.98 | S | 9 | 0.00 |
| 20 | 11/16 | 05:00 | 64 | 62 | 96 | 30.00 | SSE | 13 | 0.00 |
| 21 | 11/16 | 04:00 | 64 | 63 | 97 | 30.02 | S | 11 | 0.00 |
| 22 | 11/16 | 03:00 | 64 | 63 | 97 | 30.05 | SSE | 14 | 0.00 |
| 23 | 11/16 | 02:00 | 65 | 63 | 95 | 30.06 | SSE | 9 | 0.00 |
| 24 | 11/16 | 01:00 | 65 | 63 | 96 | 30.06 | S | 11 | 0.00 |